createdAt,value
2023-03-06T00:01:22.802Z,2.70
2023-03-06T00:03:49.582Z,2.70
2023-03-06T00:06:16.248Z,2.70
2023-03-06T00:08:42.970Z,2.70
2023-03-06T00:11:09.699Z,2.70
2023-03-06T00:13:36.363Z,2.70
2023-03-06T00:16:03.138Z,2.70
2023-03-06T00:18:29.881Z,2.70
2023-03-06T00:21:07.913Z,2.70
2023-03-06T00:23:34.654Z,2.60
2023-03-06T00:26:01.331Z,2.60
2023-03-06T00:28:31.057Z,2.60
2023-03-06T00:30:57.815Z,2.60
2023-03-06T00:33:24.386Z,2.60
2023-03-06T00:35:51.076Z,2.60
2023-03-06T00:38:17.771Z,2.60
2023-03-06T00:40:44.555Z,2.50
2023-03-06T00:43:11.276Z,2.50
2023-03-06T00:45:38.197Z,2.50
2023-03-06T00:48:05.144Z,2.50
2023-03-06T00:50:32.128Z,2.50
2023-03-06T00:52:58.804Z,2.50
2023-03-06T00:55:25.435Z,2.50
2023-03-06T00:57:52.113Z,2.50
2023-03-06T01:00:19.072Z,2.50
2023-03-06T01:02:45.800Z,2.50
2023-03-06T01:05:13.352Z,2.50
2023-03-06T01:07:39.965Z,2.50
2023-03-06T01:10:08.022Z,2.50
2023-03-06T01:12:35.149Z,2.50
2023-03-06T01:15:02.041Z,2.40
2023-03-06T01:17:28.695Z,2.50
2023-03-06T01:19:55.359Z,2.50
2023-03-06T01:22:21.995Z,2.40
2023-03-06T01:24:52.736Z,2.40
2023-03-06T01:27:19.353Z,2.40
2023-03-06T01:29:45.975Z,2.40
2023-03-06T01:32:12.603Z,2.40
2023-03-06T01:34:39.198Z,2.40
2023-03-06T01:37:05.823Z,2.30
2023-03-06T01:39:32.518Z,2.40
2023-03-06T01:41:59.207Z,2.30
2023-03-06T01:44:25.836Z,2.40
2023-03-06T01:46:52.461Z,2.40
2023-03-06T01:49:24.277Z,2.40
2023-03-06T01:52:01.518Z,2.40
2023-03-06T01:54:32.960Z,2.40
2023-03-06T01:57:02.268Z,2.40
2023-03-06T01:59:29.282Z,2.40
2023-03-06T02:01:57.054Z,2.40
2023-03-06T02:04:23.942Z,2.40
2023-03-06T02:06:50.637Z,2.40
2023-03-06T02:09:17.358Z,2.30
2023-03-06T02:11:44.335Z,2.30
2023-03-06T02:14:12.970Z,2.30
2023-03-06T02:16:40.872Z,2.30
2023-03-06T02:19:08.945Z,2.40
2023-03-06T02:21:37.151Z,2.30
2023-03-06T02:24:21.089Z,2.30
2023-03-06T02:26:52.604Z,2.30
2023-03-06T02:29:24.226Z,2.30
2023-03-06T02:31:50.840Z,2.30
2023-03-06T02:34:20.595Z,2.30
2023-03-06T02:37:13.708Z,2.40
2023-03-06T02:39:42.775Z,2.30
2023-03-06T02:42:09.402Z,2.40
2023-03-06T02:44:36.179Z,2.30
2023-03-06T02:47:02.801Z,2.40
2023-03-06T02:49:29.479Z,2.40
2023-03-06T02:51:56.043Z,2.40
2023-03-06T02:54:22.685Z,2.40
2023-03-06T02:56:49.334Z,2.30
2023-03-06T02:59:16.010Z,2.40
2023-03-06T03:01:42.705Z,2.30
2023-03-06T03:04:09.718Z,2.30
2023-03-06T03:06:36.419Z,2.30
2023-03-06T03:09:12.153Z,2.30
2023-03-06T03:11:39.090Z,2.30
2023-03-06T03:14:05.930Z,2.30
2023-03-06T03:16:32.584Z,2.20
2023-03-06T03:18:59.174Z,2.30
2023-03-06T03:21:25.850Z,2.20
2023-03-06T03:23:52.462Z,2.30
2023-03-06T03:26:20.252Z,2.20
2023-03-06T03:28:46.914Z,2.20
2023-03-06T03:31:13.656Z,2.20
2023-03-06T03:33:40.838Z,2.20
2023-03-06T03:36:07.892Z,2.10
2023-03-06T03:38:37.706Z,2.10
2023-03-06T03:41:04.687Z,2.10
2023-03-06T03:43:31.450Z,2.10
2023-03-06T03:45:58.229Z,2.10
2023-03-06T03:48:24.944Z,2.10
2023-03-06T03:50:51.710Z,2.00
2023-03-06T03:53:18.397Z,2.00
2023-03-06T03:55:46.366Z,2.00
2023-03-06T03:58:13.006Z,2.00
2023-03-06T04:00:39.666Z,2.00
2023-03-06T04:03:06.301Z,1.90
2023-03-06T04:05:33.893Z,1.90
2023-03-06T04:08:03.070Z,1.90
2023-03-06T04:10:30.028Z,1.90
2023-03-06T04:12:56.880Z,1.80
2023-03-06T04:15:23.505Z,1.80
2023-03-06T04:17:50.159Z,1.80
2023-03-06T04:20:16.885Z,1.80
2023-03-06T04:22:43.702Z,1.80
2023-03-06T04:25:10.416Z,1.90
2023-03-06T04:27:37.115Z,1.80
2023-03-06T04:30:04.523Z,1.80
2023-03-06T04:32:31.153Z,1.80
2023-03-06T04:34:57.977Z,1.80
2023-03-06T04:37:25.236Z,1.70
2023-03-06T04:39:51.922Z,1.70
2023-03-06T04:42:18.629Z,1.70
2023-03-06T04:44:45.342Z,1.70
2023-03-06T04:47:11.977Z,1.60
2023-03-06T04:49:38.640Z,1.60
2023-03-06T04:52:05.763Z,1.70
2023-03-06T04:54:33.077Z,1.60
2023-03-06T04:57:01.320Z,1.60
2023-03-06T04:59:27.962Z,1.60
2023-03-06T05:01:54.871Z,1.50
2023-03-06T05:04:21.654Z,1.60
2023-03-06T05:06:48.256Z,1.60
2023-03-06T05:09:14.897Z,1.60
2023-03-06T05:11:41.565Z,1.60
2023-03-06T05:14:08.253Z,1.60
2023-03-06T05:16:34.892Z,1.60
2023-03-06T05:19:01.608Z,1.50
2023-03-06T05:21:28.231Z,1.50
2023-03-06T05:23:54.893Z,1.50
2023-03-06T05:26:21.569Z,1.60
2023-03-06T05:28:48.235Z,1.50
2023-03-06T05:31:14.872Z,1.50
2023-03-06T05:33:43.969Z,1.40
2023-03-06T05:36:10.696Z,1.40
2023-03-06T05:38:37.362Z,1.40
2023-03-06T05:41:04.108Z,1.40
2023-03-06T05:43:30.719Z,1.40
2023-03-06T05:46:01.753Z,1.40
2023-03-06T05:48:28.458Z,1.30
2023-03-06T05:50:56.003Z,1.30
2023-03-06T05:53:22.674Z,1.30
2023-03-06T05:56:02.629Z,1.40
2023-03-06T05:58:29.372Z,1.30
2023-03-06T06:00:56.274Z,1.30
2023-03-06T06:03:23.118Z,1.30
2023-03-06T06:05:50.005Z,1.30
2023-03-06T06:08:16.972Z,1.30
2023-03-06T06:10:43.566Z,1.20
2023-03-06T06:13:10.228Z,1.30
2023-03-06T06:15:38.014Z,1.40
2023-03-06T06:18:04.703Z,1.40
2023-03-06T06:20:31.332Z,1.40
2023-03-06T06:22:57.991Z,1.40
2023-03-06T06:25:24.595Z,1.50
2023-03-06T06:27:54.021Z,1.50
2023-03-06T06:30:20.921Z,1.50
2023-03-06T06:32:48.190Z,1.60
2023-03-06T06:35:14.921Z,1.60
2023-03-06T06:37:41.570Z,1.70
2023-03-06T06:40:08.545Z,1.70
2023-03-06T06:42:39.932Z,1.80
2023-03-06T06:45:07.915Z,1.90
2023-03-06T06:47:34.615Z,1.90
2023-03-06T06:50:01.273Z,1.90
2023-03-06T06:52:27.876Z,1.90
2023-03-06T06:54:54.596Z,1.90
2023-03-06T06:57:21.839Z,1.90
2023-03-06T06:59:48.491Z,2.00
2023-03-06T07:02:16.449Z,2.10
2023-03-06T07:05:00.351Z,2.10
2023-03-06T07:07:29.687Z,2.10
2023-03-06T07:09:56.356Z,2.20
2023-03-06T07:12:23.006Z,2.20
2023-03-06T07:14:49.646Z,2.40
2023-03-06T07:17:16.310Z,2.40
2023-03-06T07:19:42.996Z,2.50
2023-03-06T07:22:09.769Z,2.50
2023-03-06T07:24:36.449Z,2.50
2023-03-06T07:27:03.102Z,2.50
2023-03-06T07:29:29.784Z,2.50
2023-03-06T07:31:56.465Z,2.50
2023-03-06T07:34:23.078Z,2.50
2023-03-06T07:36:50.895Z,2.50
2023-03-06T07:39:17.619Z,2.50
2023-03-06T07:41:44.265Z,2.50
2023-03-06T07:44:11.053Z,2.60
2023-03-06T07:46:37.824Z,2.60
2023-03-06T07:49:04.498Z,2.60
2023-03-06T07:51:31.167Z,2.70
2023-03-06T07:53:57.752Z,2.80
2023-03-06T07:56:24.472Z,2.80
2023-03-06T07:58:51.114Z,2.90
2023-03-06T08:01:19.860Z,2.90
2023-03-06T08:03:47.365Z,2.90
2023-03-06T08:06:16.209Z,3.00
2023-03-06T08:08:44.349Z,3.00
2023-03-06T08:11:12.500Z,3.10
2023-03-06T08:13:39.352Z,3.10
2023-03-06T08:16:07.097Z,3.20
2023-03-06T08:18:33.763Z,3.20
2023-03-06T08:21:11.459Z,3.30
2023-03-06T08:23:38.538Z,3.40
2023-03-06T08:26:06.868Z,3.40
2023-03-06T08:28:33.893Z,3.50
2023-03-06T08:31:07.282Z,3.60
2023-03-06T08:33:33.896Z,3.70
2023-03-06T08:36:02.276Z,3.70
2023-03-06T08:38:29.252Z,3.80
2023-03-06T08:40:55.900Z,3.90
2023-03-06T08:43:22.730Z,4.00
2023-03-06T08:45:53.306Z,4.00
2023-03-06T08:48:20.128Z,4.10
2023-03-06T08:50:46.750Z,4.10
2023-03-06T08:53:13.523Z,4.00
2023-03-06T08:55:40.205Z,4.00
2023-03-06T08:58:06.910Z,4.00
2023-03-06T09:00:33.615Z,4.00
2023-03-06T09:03:00.316Z,4.00
2023-03-06T09:05:26.985Z,4.00
2023-03-06T09:07:53.621Z,3.90
2023-03-06T09:10:21.457Z,3.90
2023-03-06T09:12:50.868Z,3.90
2023-03-06T09:15:19.912Z,3.90
2023-03-06T09:17:47.364Z,3.90
2023-03-06T09:20:14.457Z,4.00
2023-03-06T09:22:42.430Z,4.00
2023-03-06T09:25:10.045Z,4.00
2023-03-06T09:27:36.632Z,4.10
2023-03-06T09:30:04.178Z,4.10
2023-03-06T09:32:30.818Z,4.20
2023-03-06T09:34:57.416Z,4.30
2023-03-06T09:37:24.259Z,4.30
2023-03-06T09:39:50.881Z,4.30
2023-03-06T09:42:19.599Z,4.40
2023-03-06T09:44:49.528Z,4.50
2023-03-06T09:47:34.976Z,4.40
2023-03-06T09:50:10.797Z,4.30
2023-03-06T09:52:57.233Z,4.30
2023-03-06T09:55:29.694Z,4.40
2023-03-06T09:58:07.167Z,4.50
2023-03-06T10:00:36.916Z,4.60
2023-03-06T10:03:19.875Z,4.70
2023-03-06T10:05:48.693Z,4.80
2023-03-06T10:08:21.409Z,5.00
2023-03-06T10:10:58.792Z,5.20
2023-03-06T10:13:31.667Z,5.30
2023-03-06T10:16:17.137Z,5.40
2023-03-06T10:18:43.780Z,5.60
2023-03-06T10:21:37.086Z,5.60
2023-03-06T10:24:15.004Z,5.60
2023-03-06T10:26:44.894Z,5.70
2023-03-06T10:29:11.600Z,5.80
2023-03-06T10:31:44.746Z,5.90
2023-03-06T10:34:28.525Z,6.00
2023-03-06T10:36:55.140Z,6.00
2023-03-06T10:39:22.684Z,5.90
2023-03-06T10:41:49.669Z,5.80
2023-03-06T10:44:16.370Z,5.70
2023-03-06T10:46:45.278Z,5.60
2023-03-06T10:49:14.972Z,5.50
2023-03-06T10:51:54.773Z,5.50
2023-03-06T10:54:21.596Z,5.50
2023-03-06T10:56:48.354Z,5.50
2023-03-06T10:59:20.098Z,5.60
2023-03-06T11:01:48.268Z,5.50
2023-03-06T11:04:21.258Z,5.40
2023-03-06T11:06:48.378Z,5.40
2023-03-06T11:09:15.069Z,5.40
2023-03-06T11:11:41.704Z,5.40
2023-03-06T11:14:16.280Z,5.40
2023-03-06T11:16:53.284Z,5.40
2023-03-06T11:19:28.016Z,5.50
2023-03-06T11:22:00.719Z,5.80
2023-03-06T11:24:30.972Z,5.70
2023-03-06T11:26:59.843Z,5.80
2023-03-06T11:29:29.784Z,6.00
2023-03-06T11:32:05.513Z,5.80
2023-03-06T11:34:50.146Z,5.70
2023-03-06T11:37:32.288Z,5.60
2023-03-06T11:40:13.008Z,5.80
2023-03-06T11:42:45.865Z,5.80
2023-03-06T11:45:15.645Z,5.70
2023-03-06T11:47:57.716Z,5.80
2023-03-06T11:50:35.878Z,5.90
2023-03-06T11:53:06.728Z,5.80
2023-03-06T11:55:40.113Z,5.80
2023-03-06T11:58:22.136Z,5.80
2023-03-06T12:00:58.565Z,5.80
2023-03-06T12:03:34.490Z,5.80
2023-03-06T12:06:05.913Z,6.00
2023-03-06T12:08:32.574Z,6.00
2023-03-06T12:11:19.603Z,6.10
2023-03-06T12:14:05.279Z,6.00
2023-03-06T12:16:40.797Z,6.00
2023-03-06T12:19:36.989Z,6.10
2023-03-06T12:22:18.866Z,6.20
2023-03-06T12:24:51.689Z,6.20
2023-03-06T12:27:18.302Z,6.30
2023-03-06T12:29:59.378Z,6.30
2023-03-06T12:32:38.799Z,6.30
2023-03-06T12:35:19.014Z,6.40
2023-03-06T12:37:57.970Z,6.30
2023-03-06T12:40:34.875Z,6.30
2023-03-06T12:43:10.249Z,6.30
2023-03-06T12:45:37.390Z,6.20
2023-03-06T12:48:09.751Z,6.20
2023-03-06T12:50:39.898Z,6.10
2023-03-06T12:53:08.249Z,6.30
2023-03-06T12:55:40.977Z,6.30
2023-03-06T12:58:27.527Z,6.40
2023-03-06T13:01:04.295Z,6.30
2023-03-06T13:03:31.207Z,6.40
2023-03-06T13:06:05.719Z,6.30
2023-03-06T13:08:47.060Z,6.30
2023-03-06T13:11:13.673Z,6.40
2023-03-06T13:13:44.448Z,6.40
2023-03-06T13:16:14.172Z,6.40
2023-03-06T13:18:40.848Z,6.40
2023-03-06T13:21:26.393Z,6.30
2023-03-06T13:24:03.367Z,6.30
2023-03-06T13:26:29.948Z,6.20
2023-03-06T13:28:58.021Z,6.30
2023-03-06T13:31:34.025Z,6.20
2023-03-06T13:34:01.708Z,6.10
2023-03-06T13:36:29.628Z,6.00
2023-03-06T13:38:57.447Z,5.90
2023-03-06T13:41:24.850Z,5.80
2023-03-06T13:43:52.938Z,5.80
2023-03-06T13:46:30.994Z,5.80
2023-03-06T13:49:24.181Z,5.90
2023-03-06T13:51:53.882Z,5.90
2023-03-06T13:54:26.250Z,5.90
2023-03-06T13:57:05.017Z,6.30
2023-03-06T13:59:37.733Z,6.10
2023-03-06T14:02:14.511Z,5.90
2023-03-06T14:04:50.776Z,5.80
2023-03-06T14:07:20.128Z,5.70
2023-03-06T14:09:48.179Z,5.70
2023-03-06T14:12:23.717Z,5.70
2023-03-06T14:15:13.692Z,5.80
2023-03-06T14:17:47.786Z,5.80
2023-03-06T14:20:16.277Z,5.80
2023-03-06T14:22:42.892Z,5.80
2023-03-06T14:25:28.447Z,5.70
2023-03-06T14:28:05.735Z,5.70
2023-03-06T14:30:48.331Z,5.70
2023-03-06T14:33:24.149Z,5.70
2023-03-06T14:35:51.657Z,5.70
2023-03-06T14:38:18.375Z,5.70
2023-03-06T14:40:45.570Z,5.80
2023-03-06T14:43:13.498Z,5.80
2023-03-06T14:45:50.794Z,5.80
2023-03-06T14:48:17.852Z,5.70
2023-03-06T14:50:55.601Z,5.90
2023-03-06T14:53:30.284Z,5.90
2023-03-06T14:55:58.975Z,5.80
2023-03-06T14:58:31.836Z,5.80
2023-03-06T15:01:01.396Z,5.90
2023-03-06T15:03:33.809Z,5.90
2023-03-06T15:06:00.840Z,5.90
2023-03-06T15:08:30.075Z,5.90
2023-03-06T15:11:01.694Z,5.90
2023-03-06T15:13:29.524Z,5.90
2023-03-06T15:16:06.695Z,5.90
2023-03-06T15:18:54.306Z,5.90
2023-03-06T15:21:22.424Z,5.80
2023-03-06T15:23:50.371Z,5.80
2023-03-06T15:26:17.055Z,5.80
2023-03-06T15:28:43.706Z,5.70
2023-03-06T15:31:10.463Z,5.70
2023-03-06T15:33:37.417Z,5.70
2023-03-06T15:36:05.195Z,5.60
2023-03-06T15:38:31.825Z,5.60
2023-03-06T15:40:59.439Z,5.60
2023-03-06T15:43:27.439Z,5.60
2023-03-06T15:45:57.816Z,5.60
2023-03-06T15:48:24.487Z,5.60
2023-03-06T15:50:52.307Z,5.60
2023-03-06T15:53:20.342Z,5.50
2023-03-06T15:55:47.156Z,5.50
2023-03-06T15:58:16.285Z,5.50
2023-03-06T16:00:44.030Z,5.50
2023-03-06T16:03:11.490Z,5.50
2023-03-06T16:05:38.629Z,5.50
2023-03-06T16:08:05.770Z,5.50
2023-03-06T16:10:34.223Z,5.40
2023-03-06T16:13:03.019Z,5.40
2023-03-06T16:15:33.160Z,5.30
2023-03-06T16:18:00.167Z,5.30
2023-03-06T16:23:48.310Z,5.20
2023-03-06T16:26:34.083Z,5.20
2023-03-06T16:29:00.976Z,5.20
2023-03-06T16:31:27.581Z,5.10
2023-03-06T16:33:54.285Z,5.10
2023-03-06T16:36:22.598Z,5.10
2023-03-06T16:38:49.699Z,5.10
2023-03-06T16:41:17.135Z,5.10
2023-03-06T16:43:43.916Z,5.10
2023-03-06T16:46:22.058Z,5.00
2023-03-06T16:48:50.476Z,5.00
2023-03-06T16:51:18.307Z,5.00
2023-03-06T16:53:45.677Z,4.90
2023-03-06T16:56:13.191Z,4.90
2023-03-06T16:58:40.072Z,4.90
2023-03-06T17:01:07.121Z,4.80
2023-03-06T17:03:34.102Z,4.80
2023-03-06T17:06:01.189Z,4.80
2023-03-06T17:08:29.405Z,4.80
2023-03-06T17:10:56.047Z,4.80
2023-03-06T17:13:22.678Z,4.80
2023-03-06T17:15:55.976Z,4.80
2023-03-06T17:18:24.087Z,4.80
2023-03-06T17:20:51.742Z,4.80
2023-03-06T17:23:19.097Z,4.70
2023-03-06T17:25:45.854Z,4.90
2023-03-06T17:28:13.055Z,4.80
2023-03-06T17:30:40.144Z,4.80
2023-03-06T17:33:06.823Z,4.90
2023-03-06T17:35:36.920Z,4.90
2023-03-06T17:38:37.013Z,4.90
2023-03-06T17:41:05.157Z,4.90
2023-03-06T17:43:37.704Z,4.90
2023-03-06T17:46:05.135Z,5.00
2023-03-06T17:48:31.895Z,4.90
2023-03-06T17:50:58.514Z,4.90
2023-03-06T17:53:25.475Z,4.90
2023-03-06T17:55:52.172Z,4.90
2023-03-06T17:58:18.993Z,4.90
2023-03-06T18:00:46.205Z,4.80
2023-03-06T18:03:12.840Z,4.80
2023-03-06T18:05:39.617Z,4.80
2023-03-06T18:08:08.304Z,4.70
2023-03-06T18:10:35.070Z,4.70
2023-03-06T18:13:01.712Z,4.60
2023-03-06T18:15:29.407Z,4.50
2023-03-06T18:17:56.727Z,4.50
2023-03-06T18:20:23.387Z,4.50
2023-03-06T18:22:52.581Z,4.50
2023-03-06T18:25:19.313Z,4.50
2023-03-06T18:27:47.029Z,4.50
2023-03-06T18:30:14.430Z,4.50
2023-03-06T18:32:41.117Z,4.40
2023-03-06T18:35:16.216Z,4.50
2023-03-06T18:37:47.895Z,4.40
2023-03-06T18:40:15.808Z,4.40
2023-03-06T18:42:46.619Z,4.40
2023-03-06T18:45:13.507Z,4.40
2023-03-06T18:47:40.776Z,4.40
2023-03-06T18:50:08.943Z,4.30
2023-03-06T18:52:35.616Z,4.30
2023-03-06T18:55:02.356Z,4.30
2023-03-06T18:57:30.391Z,4.30
2023-03-06T18:59:57.502Z,4.30
2023-03-06T19:02:24.188Z,4.30
2023-03-06T19:05:58.506Z,4.30
2023-03-06T19:07:54.485Z,4.20
2023-03-06T19:10:21.158Z,4.20
2023-03-06T19:12:47.787Z,4.20
2023-03-06T19:15:27.336Z,4.20
2023-03-06T19:17:54.020Z,4.20
2023-03-06T19:20:20.690Z,4.20
2023-03-06T19:22:47.313Z,4.20
2023-03-06T19:25:15.123Z,4.20
2023-03-06T19:27:45.964Z,4.10
2023-03-06T19:30:13.300Z,4.20
2023-03-06T19:33:15.334Z,4.10
2023-03-06T19:39:04.352Z,4.10
2023-03-06T19:41:31.179Z,4.00
2023-03-06T19:43:59.209Z,4.00
2023-03-06T19:46:31.711Z,4.00
2023-03-06T19:49:20.940Z,4.00
2023-03-06T19:51:47.857Z,4.00
2023-03-06T19:54:14.733Z,4.10
2023-03-06T19:56:45.028Z,4.00
2023-03-06T19:59:11.645Z,4.00
2023-03-06T20:01:38.653Z,4.00
2023-03-06T20:04:05.817Z,4.00
2023-03-06T20:06:37.595Z,4.00
2023-03-06T20:09:06.442Z,4.00
2023-03-06T20:11:33.152Z,3.90
2023-03-06T20:14:01.441Z,3.90
2023-03-06T20:16:28.590Z,3.90
2023-03-06T20:19:00.593Z,3.90
2023-03-06T20:21:28.445Z,3.90
2023-03-06T20:23:56.950Z,3.90
2023-03-06T20:26:30.170Z,3.90
2023-03-06T20:28:59.698Z,3.90
2023-03-06T20:31:27.930Z,3.90
2023-03-06T20:33:56.300Z,3.90
2023-03-06T20:36:24.129Z,3.90
2023-03-06T20:38:50.884Z,3.90
2023-03-06T20:41:19.055Z,3.90
2023-03-06T20:43:45.871Z,3.90
2023-03-06T20:46:13.246Z,3.90
2023-03-06T20:48:40.464Z,3.90
2023-03-06T20:51:08.541Z,3.90
2023-03-06T20:53:39.707Z,3.80
2023-03-06T20:56:06.930Z,3.80
2023-03-06T20:58:36.952Z,3.80
2023-03-06T21:01:19.981Z,3.90
2023-03-06T21:04:06.649Z,3.90
2023-03-06T21:06:33.493Z,3.90
2023-03-06T21:09:08.519Z,3.90
2023-03-06T21:11:35.474Z,3.90
2023-03-06T21:14:02.202Z,3.90
2023-03-06T21:16:30.195Z,3.90
2023-03-06T21:18:57.879Z,3.80
2023-03-06T21:21:25.748Z,3.80
2023-03-06T21:23:52.417Z,3.80
2023-03-06T21:26:26.338Z,3.80
2023-03-06T21:28:53.237Z,3.80
2023-03-06T21:31:20.922Z,3.80
2023-03-06T21:33:48.672Z,3.80
2023-03-06T21:36:15.881Z,3.80
2023-03-06T21:38:42.521Z,3.80
2023-03-06T21:41:17.052Z,3.70
2023-03-06T21:43:43.844Z,3.70
2023-03-06T21:46:11.059Z,3.70
2023-03-06T21:48:38.016Z,3.70
2023-03-06T21:51:04.689Z,3.70
2023-03-06T21:53:31.388Z,3.70
2023-03-06T21:55:59.263Z,3.70
2023-03-06T21:58:25.942Z,3.60
2023-03-06T22:00:52.682Z,3.60
2023-03-06T22:03:19.376Z,3.70
2023-03-06T22:05:46.191Z,3.70
2023-03-06T22:08:12.980Z,3.60
2023-03-06T22:10:40.184Z,3.70
2023-03-06T22:13:06.837Z,3.70
2023-03-06T22:15:33.435Z,3.70
2023-03-06T22:18:00.040Z,3.70
2023-03-06T22:20:26.690Z,3.80
2023-03-06T22:22:53.400Z,3.80
2023-03-06T22:25:20.154Z,3.80
2023-03-06T22:27:46.848Z,3.90
2023-03-06T22:30:13.632Z,4.00
2023-03-06T22:32:40.431Z,4.10
2023-03-06T22:35:07.209Z,4.10
2023-03-06T22:37:33.830Z,4.10
2023-03-06T22:40:00.470Z,4.20
2023-03-06T22:42:27.063Z,4.10
2023-03-06T22:44:53.676Z,4.10
2023-03-06T22:47:20.275Z,4.00
2023-03-06T22:49:46.878Z,4.00
2023-03-06T22:52:15.207Z,4.00
2023-03-06T22:54:41.948Z,3.90
2023-03-06T22:57:08.575Z,4.00
2023-03-06T22:59:35.389Z,3.90
2023-03-06T23:02:02.088Z,4.00
2023-03-06T23:04:28.765Z,4.00
2023-03-06T23:06:55.408Z,4.00
2023-03-06T23:09:22.540Z,4.00
2023-03-06T23:11:49.768Z,4.00
2023-03-06T23:14:17.320Z,3.90
2023-03-06T23:16:43.996Z,3.90
2023-03-06T23:19:11.330Z,3.90
2023-03-06T23:21:39.044Z,3.90
2023-03-06T23:24:06.929Z,3.90
2023-03-06T23:26:34.329Z,3.80
2023-03-06T23:29:01.447Z,3.90
2023-03-06T23:31:29.350Z,3.80
2023-03-06T23:33:59.955Z,3.80
2023-03-06T23:36:27.119Z,3.80
2023-03-06T23:38:53.723Z,3.70
2023-03-06T23:41:20.891Z,3.70
2023-03-06T23:43:47.952Z,3.70
2023-03-06T23:46:15.103Z,3.60
2023-03-06T23:48:42.224Z,3.60
2023-03-06T23:51:10.261Z,3.60
2023-03-06T23:53:37.998Z,3.60
2023-03-06T23:56:06.156Z,3.60
2023-03-06T23:58:33.083Z,3.60
